Observation data for Dora on 08/14/2020      Previous  Date  Next       Current Mesonet Observations  Soil Data  Daily Summary Page  Observations in Plain Language
KDR1 140500Z 34003KT 26/08 A3007 RMK A01 T02630078  RH  032%=      5-min Rain = 0
KDR1 140505Z 34003KT 27/07 A3007 RMK A01 T02740073  RH  029%=      5-min Rain = 0
KDR1 140510Z 36003KT 28/07 A3007 RMK A01 T02800072  RH  028%=      5-min Rain = 0
KDR1 140515Z 02004KT 28/08 A3008 RMK A01 T02790076  RH  029%=      5-min Rain = 0
KDR1 140520Z 02003KT 28/08 A3008 RMK A01 T02780080  RH  030%=      5-min Rain = 0
KDR1 140525Z 01003KT 27/09 A3008 RMK A01 T02690089  RH  033%=      5-min Rain = 0
KDR1 140530Z 03005KT 28/08 A3008 RMK A01 T02760079  RH  030%=      5-min Rain = 0
KDR1 140535Z 01004KT 27/09 A3008 RMK A01 T02740089  RH  032%=      5-min Rain = 0
KDR1 140540Z 23003KT 26/11 A3008 RMK A01 T02550106  RH  041%=      5-min Rain = 0
KDR1 140545Z 24001KT 25/11 A3008 RMK A01 T02470109  RH  043%=      5-min Rain = 0
KDR1 140550Z 24001KT 25/11 A3008 RMK A01 T02450113  RH  045%=      5-min Rain = 0
KDR1 140555Z 35001KT 25/11 A3008 RMK A01 T02450107  RH  043%=      5-min Rain = 0
KDR1 140600Z 02003KT 26/09 A3008 RMK A01 T02550087  RH  036%=      5-min Rain = 0
KDR1 140605Z 04004KT 26/10 A3007 RMK A01 T02630098  RH  037%=      5-min Rain = 0
KDR1 140610Z 04004KT 26/09 A3007 RMK A01 T02610092  RH  036%=      5-min Rain = 0
KDR1 140615Z 03004KT 27/08 A3007 RMK A01 T02690083  RH  032%=      5-min Rain = 0
KDR1 140620Z 03003KT 27/08 A3007 RMK A01 T02730081  RH  031%=      5-min Rain = 0
KDR1 140625Z 05005KT 27/09 A3007 RMK A01 T02730087  RH  032%=      5-min Rain = 0
KDR1 140630Z 05005KT 27/10 A3007 RMK A01 T02700097  RH  035%=      5-min Rain = 0
KDR1 140635Z 05004KT 27/09 A3008 RMK A01 T02740088  RH  032%=      5-min Rain = 0
KDR1 140640Z 07004KT 27/09 A3008 RMK A01 T02740092  RH  033%=      5-min Rain = 0
KDR1 140645Z 07003KT 27/09 A3008 RMK A01 T02710092  RH  033%=      5-min Rain = 0
KDR1 140650Z 05002KT 27/09 A3008 RMK A01 T02710094  RH  034%=      5-min Rain = 0
KDR1 140655Z 02001KT 27/10 A3008 RMK A01 T02710095  RH  034%=      5-min Rain = 0
KDR1 140700Z 10002KT 28/09 A3009 RMK A01 T02750090  RH  032%=      5-min Rain = 0
KDR1 140705Z 19011G21KT 27/11 A3011 RMK A01 T02710105  RH  036%=      5-min Rain = 0
KDR1 140710Z 20015G22KT 27/10 A3011 RMK A01 T02730096  RH  034%=      5-min Rain = 0
KDR1 140715Z 18009G14KT 28/10 A3011 RMK A01 T02790097  RH  033%=      5-min Rain = 0
KDR1 140720Z 18009G14KT 28/09 A301 RMK A01 T02790093  RH  032%=      5-min Rain = 0
KDR1 140725Z 19011KT 28/09 A301 RMK A01 T02820086  RH  030%=      5-min Rain = 0
KDR1 140730Z 18011KT 28/09 A301 RMK A01 T02810087  RH  030%=      5-min Rain = 0
KDR1 140735Z 18013KT 28/09 A3009 RMK A01 T02780087  RH  031%=      5-min Rain = 0
KDR1 140740Z 17012KT 28/09 A3009 RMK A01 T02760087  RH  031%=      5-min Rain = 0
KDR1 140745Z 18010KT 27/09 A3009 RMK A01 T02690090  RH  033%=      5-min Rain = 0
KDR1 140750Z 18010KT 27/09 A3009 RMK A01 T02660091  RH  034%=      5-min Rain = 0
KDR1 140755Z 18011KT 27/09 A3008 RMK A01 T02650091  RH  034%=      5-min Rain = 0
KDR1 140800Z 17011KT 27/09 A3008 RMK A01 T02650089  RH  034%=      5-min Rain = 0
KDR1 140805Z 18011KT 27/09 A3008 RMK A01 T02670087  RH  033%=      5-min Rain = 0
KDR1 140810Z 17010KT 27/09 A3008 RMK A01 T02660088  RH  034%=      5-min Rain = 0
KDR1 140815Z 17008KT 26/09 A3008 RMK A01 T02630090  RH  034%=      5-min Rain = 0
KDR1 140820Z 18009KT 26/09 A3008 RMK A01 T02600090  RH  035%=      5-min Rain = 0
KDR1 140825Z 19009KT 26/09 A3008 RMK A01 T02620088  RH  034%=      5-min Rain = 0
KDR1 140830Z 20008KT 26/09 A3008 RMK A01 T02610088  RH  035%=      5-min Rain = 0
KDR1 140835Z 20007KT 26/09 A3008 RMK A01 T02560092  RH  037%=      5-min Rain = 0
KDR1 140840Z 20009KT 25/09 A3008 RMK A01 T02530094  RH  038%=      5-min Rain = 0
KDR1 140845Z 20007KT 25/09 A3008 RMK A01 T02520094  RH  038%=      5-min Rain = 0
KDR1 140850Z 21008KT 26/09 A3008 RMK A01 T02560092  RH  036%=      5-min Rain = 0
KDR1 140855Z 23008KT 25/09 A3008 RMK A01 T02530094  RH  038%=      5-min Rain = 0
KDR1 140900Z 23010KT 25/09 A3008 RMK A01 T02510092  RH  038%=      5-min Rain = 0
KDR1 140905Z 24009KT 25/09 A3008 RMK A01 T02510092  RH  038%=      5-min Rain = 0
KDR1 140910Z 23011KT 25/09 A3008 RMK A01 T02540090  RH  036%=      5-min Rain = 0
KDR1 140915Z 23010KT 26/09 A3007 RMK A01 T02610087  RH  034%=      5-min Rain = 0
KDR1 140920Z 24008KT 26/09 A3007 RMK A01 T02590089  RH  035%=      5-min Rain = 0
KDR1 140925Z 26006KT 25/09 A3007 RMK A01 T02530092  RH  037%=      5-min Rain = 0
KDR1 140930Z 26007KT 26/09 A3007 RMK A01 T02570088  RH  035%=      5-min Rain = 0
KDR1 140935Z 25007KT 26/09 A3007 RMK A01 T02600087  RH  034%=      5-min Rain = 0
KDR1 140940Z 25006KT 26/09 A3007 RMK A01 T02590088  RH  035%=      5-min Rain = 0
KDR1 140945Z 25007KT 26/09 A3007 RMK A01 T02570089  RH  036%=      5-min Rain = 0
KDR1 140950Z 26007KT 26/09 A3007 RMK A01 T02550089  RH  036%=      5-min Rain = 0
KDR1 140955Z 26008KT 26/09 A3007 RMK A01 T02610087  RH  034%=      5-min Rain = 0
KDR1 141000Z 25007KT 26/09 A3007 RMK A01 T02620087  RH  034%=      5-min Rain = 0
KDR1 141005Z 25008KT 26/09 A3007 RMK A01 T02610087  RH  034%=      5-min Rain = 0
KDR1 141010Z 25007KT 26/09 A3007 RMK A01 T02580089  RH  035%=      5-min Rain = 0
KDR1 141015Z 25009KT 26/09 A3007 RMK A01 T02570089  RH  036%=      5-min Rain = 0
KDR1 141020Z 26009KT 25/09 A3007 RMK A01 T02530091  RH  037%=      5-min Rain = 0
KDR1 141025Z 25008KT 25/09 A3008 RMK A01 T02520091  RH  037%=      5-min Rain = 0
KDR1 141030Z 25008KT 25/09 A3008 RMK A01 T02490092  RH  038%=      5-min Rain = 0
KDR1 141035Z 24007KT 25/09 A3008 RMK A01 T02500091  RH  038%=      5-min Rain = 0
KDR1 141040Z 24007KT 25/09 A3008 RMK A01 T02490093  RH  038%=      5-min Rain = 0
KDR1 141045Z 24007KT 25/09 A3008 RMK A01 T02480093  RH  038%=      5-min Rain = 0
KDR1 141050Z 25007KT 25/09 A3008 RMK A01 T02490093  RH  038%=      5-min Rain = 0
KDR1 141055Z 25007KT 25/09 A3008 RMK A01 T02530091  RH  037%=      5-min Rain = 0
KDR1 141100Z 25007KT 25/09 A3008 RMK A01 T02530092  RH  037%=      5-min Rain = 0
KDR1 141105Z 24007KT 25/09 A3008 RMK A01 T02520092  RH  037%=      5-min Rain = 0
KDR1 141110Z 24007KT 25/09 A3008 RMK A01 T02510093  RH  038%=      5-min Rain = 0
KDR1 141115Z 25007KT 25/09 A3008 RMK A01 T02490093  RH  038%=      5-min Rain = 0
KDR1 141120Z 25008KT 25/09 A3008 RMK A01 T02470094  RH  039%=      5-min Rain = 0
KDR1 141125Z 25008KT 25/09 A3008 RMK A01 T02460094  RH  039%=      5-min Rain = 0
KDR1 141130Z 24008G13KT 25/10 A3008 RMK A01 T02450095  RH  040%=      5-min Rain = 0
KDR1 141135Z 23009KT 25/09 A3008 RMK A01 T02480094  RH  039%=      5-min Rain = 0
KDR1 141140Z 23010KT 25/09 A3008 RMK A01 T02530093  RH  037%=      5-min Rain = 0
KDR1 141145Z 23009KT 25/09 A3008 RMK A01 T02510093  RH  038%=      5-min Rain = 0
KDR1 141150Z 23009KT 25/09 A3008 RMK A01 T02500094  RH  038%=      5-min Rain = 0
KDR1 141155Z 23008KT 25/09 A3009 RMK A01 T02510094  RH  038%=      5-min Rain = 0
KDR1 141200Z 23009KT 25/09 A3009 RMK A01 T02500094  RH  038%=      5-min Rain = 0
KDR1 141205Z 23008KT 25/10 A3009 RMK A01 T02480095  RH  039%=      5-min Rain = 0
KDR1 141210Z 23007KT 25/10 A3009 RMK A01 T02450095  RH  040%=      5-min Rain = 0
KDR1 141215Z 23006KT 24/10 A3009 RMK A01 T02410096  RH  041%=      5-min Rain = 0
KDR1 141220Z 23006KT 24/10 A3009 RMK A01 T02410097  RH  041%=      5-min Rain = 0
KDR1 141225Z 23005KT 24/10 A301 RMK A01 T02400099  RH  042%=      5-min Rain = 0
KDR1 141230Z 23006KT 24/10 A301 RMK A01 T02380100  RH  043%=      5-min Rain = 0
KDR1 141235Z 24007KT 24/10 A301 RMK A01 T02370100  RH  043%=      5-min Rain = 0
KDR1 141240Z 23008KT 24/10 A301 RMK A01 T02430099  RH  041%=      5-min Rain = 0
KDR1 141245Z 24008KT 24/10 A301 RMK A01 T02420100  RH  042%=      5-min Rain = 0
KDR1 141250Z 24007KT 24/10 A301 RMK A01 T02420101  RH  042%=      5-min Rain = 0
KDR1 141255Z 24007KT 24/10 A3011 RMK A01 T02420102  RH  043%=      5-min Rain = 0
KDR1 141300Z 25007KT 24/10 A3011 RMK A01 T02410104  RH  043%=      5-min Rain = 0
KDR1 141305Z 24007KT 24/10 A3011 RMK A01 T02430102  RH  042%=      5-min Rain = 0
KDR1 141310Z 24007KT 25/10 A3011 RMK A01 T02460103  RH  042%=      5-min Rain = 0
KDR1 141315Z 24008KT 25/10 A3011 RMK A01 T02470103  RH  042%=      5-min Rain = 0
KDR1 141320Z 23008KT 25/10 A3011 RMK A01 T02470104  RH  042%=      5-min Rain = 0
KDR1 141325Z 24007KT 25/11 A3011 RMK A01 T02480107  RH  043%=      5-min Rain = 0
KDR1 141330Z 24006KT 25/11 A3011 RMK A01 T02460111  RH  044%=      5-min Rain = 0
KDR1 141335Z 24007KT 25/11 A3011 RMK A01 T02460112  RH  045%=      5-min Rain = 0
KDR1 141340Z 24007KT 25/12 A3011 RMK A01 T02460115  RH  046%=      5-min Rain = 0
KDR1 141345Z 24007KT 25/12 A3011 RMK A01 T02460116  RH  046%=      5-min Rain = 0
KDR1 141350Z 24007KT 25/12 A3011 RMK A01 T02470120  RH  047%=      5-min Rain = 0
KDR1 141355Z 24007KT 25/12 A3011 RMK A01 T02480123  RH  048%=      5-min Rain = 0
KDR1 141400Z 24007KT 25/12 A3011 RMK A01 T02510124  RH  047%=      5-min Rain = 0
KDR1 141405Z 24007KT 26/13 A3012 RMK A01 T02580125  RH  045%=      5-min Rain = 0
KDR1 141410Z 24007KT 27/12 A3012 RMK A01 T02650124  RH  043%=      5-min Rain = 0
KDR1 141415Z 24006KT 27/12 A3012 RMK A01 T02720123  RH  041%=      5-min Rain = 0
KDR1 141420Z 24006KT 28/12 A3012 RMK A01 T02770115  RH  038%=      5-min Rain = 0
KDR1 141425Z 24007KT 28/11 A3012 RMK A01 T02790113  RH  037%=      5-min Rain = 0
KDR1 141430Z 24007KT 28/11 A3012 RMK A01 T02800113  RH  037%=      5-min Rain = 0
KDR1 141435Z 23008KT 28/11 A3012 RMK A01 T02830109  RH  035%=      5-min Rain = 0
KDR1 141440Z 24008KT 29/11 A3012 RMK A01 T02850108  RH  034%=      5-min Rain = 0
KDR1 141445Z 24009KT 29/11 A3012 RMK A01 T02860110  RH  035%=      5-min Rain = 0
KDR1 141450Z 24009KT 28/11 A3012 RMK A01 T02840108  RH  035%=      5-min Rain = 0
KDR1 141455Z 24008KT 28/11 A3012 RMK A01 T02840108  RH  035%=      5-min Rain = 0
KDR1 141500Z 23008KT 29/11 A3012 RMK A01 T02850106  RH  034%=      5-min Rain = 0
KDR1 141505Z 23008KT 29/11 A3012 RMK A01 T02870107  RH  034%=      5-min Rain = 0
KDR1 141510Z 23008KT 29/11 A3012 RMK A01 T02860105  RH  034%=      5-min Rain = 0
KDR1 141515Z 22006KT 29/11 A3012 RMK A01 T02880106  RH  033%=      5-min Rain = 0
KDR1 141520Z 22006KT 29/11 A3013 RMK A01 T02900106  RH  033%=      5-min Rain = 0
KDR1 141525Z 21006KT 29/11 A3013 RMK A01 T02920111  RH  034%=      5-min Rain = 0
KDR1 141530Z 20006KT 29/11 A3013 RMK A01 T02940107  RH  033%=      5-min Rain = 0
KDR1 141535Z 20005KT 30/11 A3013 RMK A01 T02950108  RH  033%=      5-min Rain = 0
KDR1 141540Z 20005KT 30/11 A3013 RMK A01 T02970110  RH  032%=      5-min Rain = 0
KDR1 141545Z 19007KT 30/11 A3013 RMK A01 T03010114  RH  033%=      5-min Rain = 0
KDR1 141550Z 19008KT 30/12 A3013 RMK A01 T03020115  RH  033%=      5-min Rain = 0
KDR1 141555Z 18008KT 30/11 A3013 RMK A01 T03030112  RH  032%=      5-min Rain = 0
KDR1 141600Z 19009KT 30/11 A3013 RMK A01 T03020109  RH  031%=      5-min Rain = 0
KDR1 141605Z 17007KT 30/11 A3013 RMK A01 T03020109  RH  031%=      5-min Rain = 0
KDR1 141610Z 17006KT 31/11 A3013 RMK A01 T03060107  RH  030%=      5-min Rain = 0
KDR1 141615Z 17008KT 31/11 A3013 RMK A01 T03090112  RH  031%=      5-min Rain = 0
KDR1 141620Z 19009KT 31/12 A3013 RMK A01 T03130116  RH  031%=      5-min Rain = 0
KDR1 141625Z 19010G15KT 31/12 A3013 RMK A01 T03140116  RH  031%=      5-min Rain = 0
KDR1 141630Z 20011G16KT 31/11 A3013 RMK A01 T03100114  RH  031%=      5-min Rain = 0
KDR1 141635Z 20009KT 31/11 A3013 RMK A01 T03130111  RH  030%=      5-min Rain = 0
KDR1 141640Z 21008KT 32/11 A3013 RMK A01 T03180113  RH  029%=      5-min Rain = 0
KDR1 141645Z 20009KT 32/11 A3013 RMK A01 T03240113  RH  028%=      5-min Rain = 0
KDR1 141650Z 19009KT 33/11 A3013 RMK A01 T03270114  RH  028%=      5-min Rain = 0
KDR1 141655Z 19009KT 33/11 A3013 RMK A01 T03270113  RH  028%=      5-min Rain = 0
KDR1 141700Z 18010KT 33/11 A3013 RMK A01 T03270112  RH  028%=      5-min Rain = 0
KDR1 141705Z 19008KT 33/11 A3013 RMK A01 T03320113  RH  027%=      5-min Rain = 0
KDR1 141710Z 19008KT 33/11 A3013 RMK A01 T03260106  RH  027%=      5-min Rain = 0
KDR1 141715Z 20009G15KT 33/11 A3013 RMK A01 T03340107  RH  026%=      5-min Rain = 0
KDR1 141720Z 20011KT 34/10 A3013 RMK A01 T03360099  RH  024%=      5-min Rain = 0
KDR1 141725Z 19010KT 34/10 A3013 RMK A01 T03390100  RH  024%=      5-min Rain = 0
KDR1 141730Z 19009KT 34/10 A3012 RMK A01 T03390098  RH  024%=      5-min Rain = 0
KDR1 141735Z 19012KT 34/10 A3012 RMK A01 T03380095  RH  023%=      5-min Rain = 0
KDR1 141740Z 19010KT 34/10 A3012 RMK A01 T03420098  RH  023%=      5-min Rain = 0
KDR1 141745Z 19012G17KT 35/10 A3012 RMK A01 T03450098  RH  023%=      5-min Rain = 0
KDR1 141750Z 18011KT 34/09 A3012 RMK A01 T03440093  RH  022%=      5-min Rain = 0
KDR1 141755Z 19010G15KT 34/09 A3012 RMK A01 T03440091  RH  022%=      5-min Rain = 0
KDR1 141800Z 20009G16KT 35/09 A3011 RMK A01 T03470091  RH  021%=      5-min Rain = 0
KDR1 141805Z 21009G14KT 35/09 A3011 RMK A01 T03500093  RH  021%=      5-min Rain = 0
KDR1 141810Z 20009G15KT 35/09 A3011 RMK A01 T03520093  RH  021%=      5-min Rain = 0
KDR1 141815Z 19010KT 36/09 A3011 RMK A01 T03560091  RH  020%=      5-min Rain = 0
KDR1 141820Z 21009KT 36/09 A3011 RMK A01 T03550088  RH  020%=      5-min Rain = 0
KDR1 141825Z 20008G13KT 35/09 A301 RMK A01 T03500089  RH  021%=      5-min Rain = 0
KDR1 141830Z 18010G15KT 35/08 A301 RMK A01 T03520084  RH  020%=      5-min Rain = 0
KDR1 141835Z 20009G14KT 36/09 A301 RMK A01 T03590086  RH  020%=      5-min Rain = 0
KDR1 141840Z 22010G17KT 36/09 A301 RMK A01 T03600090  RH  020%=      5-min Rain = 0
KDR1 141845Z 21007KT 36/09 A301 RMK A01 T03550085  RH  020%=      5-min Rain = 0
KDR1 141850Z 21010KT 36/09 A3009 RMK A01 T03560087  RH  020%=      5-min Rain = 0
KDR1 141855Z 20007G12KT 36/09 A3009 RMK A01 T03620089  RH  019%=      5-min Rain = 0
KDR1 141900Z 22007KT 36/09 A3009 RMK A01 T03630086  RH  019%=      5-min Rain = 0
KDR1 141905Z 19007G12KT 36/09 A3009 RMK A01 T03610087  RH  020%=      5-min Rain = 0
KDR1 141910Z 23009KT 36/09 A3009 RMK A01 T03550086  RH  020%=      5-min Rain = 0
KDR1 141915Z 25004KT 35/09 A3009 RMK A01 T03540085  RH  020%=      5-min Rain = 0
KDR1 141920Z 21005G10KT 36/09 A3008 RMK A01 T03590088  RH  020%=      5-min Rain = 0
KDR1 141925Z 23010G17KT 36/09 A3008 RMK A01 T03610088  RH  020%=      5-min Rain = 0
KDR1 141930Z 26006G12KT 36/09 A3008 RMK A01 T03600087  RH  019%=      5-min Rain = 0
KDR1 141935Z 23010G16KT 36/08 A3008 RMK A01 T03580081  RH  019%=      5-min Rain = 0
KDR1 141940Z 24009G15KT 36/08 A3007 RMK A01 T03560080  RH  019%=      5-min Rain = 0
KDR1 141945Z 22009G15KT 36/08 A3007 RMK A01 T03560080  RH  019%=      5-min Rain = 0
KDR1 141950Z 21011G20KT 36/07 A3007 RMK A01 T03600072  RH  018%=      5-min Rain = 0
KDR1 141955Z 20013G25KT 36/07 A3007 RMK A01 T03620071  RH  017%=      5-min Rain = 0
KDR1 142000Z 19014G20KT 37/07 A3006 RMK A01 T03660069  RH  017%=      5-min Rain = 0
KDR1 142005Z 20013G19KT 37/07 A3006 RMK A01 T03680072  RH  017%=      5-min Rain = 0
KDR1 142010Z 21012G20KT 37/07 A3006 RMK A01 T03670069  RH  017%=      5-min Rain = 0
KDR1 142015Z 21009G14KT 37/07 A3006 RMK A01 T03690071  RH  017%=      5-min Rain = 0
KDR1 142020Z 21011G17KT 37/08 A3006 RMK A01 T03730076  RH  017%=      5-min Rain = 0
KDR1 142025Z 20011G17KT 37/07 A3005 RMK A01 T03720070  RH  016%=      5-min Rain = 0
KDR1 142030Z 20010G16KT 37/07 A3005 RMK A01 T03740071  RH  016%=      5-min Rain = 0
KDR1 142035Z 20013G19KT 37/07 A3005 RMK A01 T03720069  RH  016%=      5-min Rain = 0
KDR1 142040Z 20012G22KT 37/07 A3004 RMK A01 T03710068  RH  016%=      5-min Rain = 0
KDR1 142045Z 22014G21KT 37/07 A3004 RMK A01 T03720070  RH  016%=      5-min Rain = 0
KDR1 142050Z 21011G16KT 37/07 A3004 RMK A01 T03710068  RH  016%=      5-min Rain = 0
KDR1 142055Z 18012KT 37/07 A3004 RMK A01 T03720068  RH  016%=      5-min Rain = 0
KDR1 142100Z 21012G17KT 38/07 A3003 RMK A01 T03770072  RH  016%=      5-min Rain = 0
KDR1 142105Z 20015G22KT 37/07 A3003 RMK A01 T03740068  RH  016%=      5-min Rain = 0
KDR1 142110Z 19015KT 37/06 A3003 RMK A01 T03720063  RH  015%=      5-min Rain = 0
KDR1 142115Z 17012G17KT 37/06 A3003 RMK A01 T03730063  RH  015%=      5-min Rain = 0
KDR1 142120Z 20010G17KT 37/07 A3003 RMK A01 T03740069  RH  016%=      5-min Rain = 0
KDR1 142125Z 20010KT 37/07 A3003 RMK A01 T03740069  RH  016%=      5-min Rain = 0
KDR1 142130Z 18010G18KT 37/06 A3003 RMK A01 T03730063  RH  015%=      5-min Rain = 0
KDR1 142135Z 18010G16KT 37/06 A3002 RMK A01 T03740063  RH  015%=      5-min Rain = 0
KDR1 142140Z 19012G19KT 38/06 A3002 RMK A01 T03750063  RH  015%=      5-min Rain = 0
KDR1 142145Z 20013G19KT 37/07 A3002 RMK A01 T03740065  RH  015%=      5-min Rain = 0
KDR1 142150Z 20015G24KT 37/06 A3002 RMK A01 T03740064  RH  015%=      5-min Rain = 0
KDR1 142155Z 18014G20KT 38/06 A3002 RMK A01 T03750061  RH  015%=      5-min Rain = 0
KDR1 142200Z 20013G24KT 37/07 A3002 RMK A01 T03740065  RH  016%=      5-min Rain = 0
KDR1 142205Z 18013G19KT 37/06 A3002 RMK A01 T03720063  RH  015%=      5-min Rain = 0
KDR1 142210Z 17013G20KT 38/06 A3001 RMK A01 T03750063  RH  015%=      5-min Rain = 0
KDR1 142215Z 18014KT 37/06 A3001 RMK A01 T03740061  RH  015%=      5-min Rain = 0
KDR1 142220Z 19016G22KT 38/06 A3001 RMK A01 T03770063  RH  015%=      5-min Rain = 0
KDR1 142225Z 21013KT 37/07 A3001 RMK A01 T03740067  RH  016%=      5-min Rain = 0
KDR1 142230Z 22009KT 37/07 A3001 RMK A01 T03740065  RH  015%=      5-min Rain = 0
KDR1 142235Z 23011G16KT 37/07 A3001 RMK A01 T03730065  RH  016%=      5-min Rain = 0
KDR1 142240Z 20008G17KT 38/06 A3001 RMK A01 T03750064  RH  015%=      5-min Rain = 0
KDR1 142245Z 20014G19KT 37/07 A3001 RMK A01 T03740067  RH  016%=      5-min Rain = 0
KDR1 142250Z 20014G26KT 37/07 A3001 RMK A01 T03730067  RH  016%=      5-min Rain = 0
KDR1 142255Z 19015G24KT 37/07 A3001 RMK A01 T03710065  RH  016%=      5-min Rain = 0
KDR1 142300Z 18015KT 37/06 A3001 RMK A01 T03710062  RH  015%=      5-min Rain = 0
KDR1 142305Z 19016G21KT 37/06 A3001 RMK A01 T03670058  RH  015%=      5-min Rain = 0
KDR1 142310Z 19014G19KT 36/06 A3001 RMK A01 T03640061  RH  016%=      5-min Rain = 0
KDR1 142315Z 21013G18KT 36/06 A3001 RMK A01 T03620062  RH  016%=      5-min Rain = 0
KDR1 142320Z 21012G19KT 36/06 A3001 RMK A01 T03590059  RH  016%=      5-min Rain = 0
KDR1 142325Z 20014G24KT 36/06 A3001 RMK A01 T03580055  RH  016%=      5-min Rain = 0
KDR1 142330Z 21013G19KT 36/06 A3001 RMK A01 T03580055  RH  016%=      5-min Rain = 0
KDR1 142335Z 20016KT 36/06 A3001 RMK A01 T03570055  RH  016%=      5-min Rain = 0
KDR1 142340Z 19013KT 36/06 A3001 RMK A01 T03560056  RH  016%=      5-min Rain = 0
KDR1 142345Z 19012KT 36/06 A3001 RMK A01 T03550055  RH  016%=      5-min Rain = 0
KDR1 142350Z 21011KT 35/06 A3001 RMK A01 T03540055  RH  016%=      5-min Rain = 0
KDR1 142355Z 23010KT 35/06 A3002 RMK A01 T03530055  RH  016%=      5-min Rain = 0
KDR1 150000Z 25008KT 35/05 A3002 RMK A01 T03510052  RH  016%=      5-min Rain = 0
KDR1 150005Z 29018G36KT 35/06 A3004 RMK A01 T03480057  RH  017%=      5-min Rain = 0
KDR1 150010Z 30029G36KT 31/09 A3005 RMK A01 T03060091  RH  027%=      5-min Rain = 0
KDR1 150015Z 32025G34KT 28/11 A3005 RMK A01 T02830110  RH  036%=      5-min Rain = 0
KDR1 150020Z 32022G30KT 27/12 A3006 RMK A01 T02690121  RH  041%=      5-min Rain = 0
KDR1 150025Z 32019G27KT 27/12 A3006 RMK A01 T02680123  RH  042%=      5-min Rain = 0
KDR1 150030Z 33014KT 27/13 A3007 RMK A01 T02660127  RH  044%=      5-min Rain = 0
KDR1 150035Z 33012KT 27/13 A3007 RMK A01 T02650130  RH  045%=      5-min Rain = 0
KDR1 150040Z 35014G20KT 27/12 A3007 RMK A01 T02730120  RH  040%=      5-min Rain = 0
KDR1 150045Z 34014G19KT 28/12 A3007 RMK A01 T02770119  RH  039%=      5-min Rain = 0
KDR1 150050Z 35014KT 28/12 A3007 RMK A01 T02770118  RH  039%=      5-min Rain = 0
KDR1 150055Z 34012G18KT 28/12 A3008 RMK A01 T02760119  RH  039%=      5-min Rain = 0
KDR1 150100Z 35011KT 28/12 A3008 RMK A01 T02780116  RH  038%=      5-min Rain = 0
KDR1 150105Z 36012KT 28/11 A3007 RMK A01 T02820110  RH  035%=      5-min Rain = 0
KDR1 150110Z 01013KT 29/10 A3007 RMK A01 T02870103  RH  033%=      5-min Rain = 0
KDR1 150115Z 02013KT 29/10 A3007 RMK A01 T02900101  RH  032%=      5-min Rain = 0
KDR1 150120Z 02012KT 29/10 A3007 RMK A01 T02940095  RH  030%=      5-min Rain = 0
KDR1 150125Z 04010KT 29/09 A3007 RMK A01 T02940094  RH  030%=      5-min Rain = 0
KDR1 150130Z 05014G20KT 30/09 A3008 RMK A01 T02970092  RH  029%=      5-min Rain = 0
KDR1 150135Z 07012G17KT 29/11 A3008 RMK A01 T02850107  RH  034%=      5-min Rain = 0
KDR1 150140Z 08012G19KT 28/11 A3008 RMK A01 T02800109  RH  036%=      5-min Rain = 0
KDR1 150145Z 09021G28KT 27/12 A3009 RMK A01 T02700119  RH  041%=      5-min Rain = 0
KDR1 150150Z 09020G26KT 25/13 A3009 RMK A01 T02510130  RH  049%=      5-min Rain = 0
KDR1 150155Z 09020G27KT 25/13 A3009 RMK A01 T02490129  RH  049%=      5-min Rain = 0
KDR1 150200Z 09020G25KT 25/13 A3009 RMK A01 T02500127  RH  048%=      5-min Rain = 0
KDR1 150205Z 09020KT 25/13 A3009 RMK A01 T02510126  RH  047%=      5-min Rain = 0
KDR1 150210Z 10018KT 26/12 A3009 RMK A01 T02550122  RH  045%=      5-min Rain = 0
KDR1 150215Z 10017G23KT 26/12 A3009 RMK A01 T02560121  RH  045%=      5-min Rain = 0
KDR1 150220Z 11018G23KT 26/12 A3009 RMK A01 T02560120  RH  044%=      5-min Rain = 0
KDR1 150225Z 10018G23KT 26/12 A3008 RMK A01 T02550120  RH  045%=      5-min Rain = 0
KDR1 150230Z 11016KT 26/12 A3008 RMK A01 T02550120  RH  044%=      5-min Rain = 0
KDR1 150235Z 11017G23KT 26/12 A3008 RMK A01 T02550120  RH  045%=      5-min Rain = 0
KDR1 150240Z 11018G23KT 25/12 A3009 RMK A01 T02540120  RH  045%=      5-min Rain = 0
KDR1 150245Z 11019G24KT 26/12 A3009 RMK A01 T02560118  RH  044%=      5-min Rain = 0
KDR1 150250Z 11019G25KT 26/12 A3008 RMK A01 T02560117  RH  043%=      5-min Rain = 0
KDR1 150255Z 11019G24KT 26/12 A3009 RMK A01 T02560116  RH  043%=      5-min Rain = 0
KDR1 150300Z 11017G24KT 26/11 A3008 RMK A01 T02570114  RH  042%=      5-min Rain = 0
KDR1 150305Z 11022G29KT 26/11 A3008 RMK A01 T02590111  RH  041%=      5-min Rain = 0
KDR1 150310Z 11018G25KT 26/11 A3008 RMK A01 T02580112  RH  041%=      5-min Rain = 0
KDR1 150315Z 11020G27KT 26/11 A3008 RMK A01 T02610107  RH  040%=      5-min Rain = 0
KDR1 150320Z 12020G28KT 26/11 A3008 RMK A01 T02630106  RH  039%=      5-min Rain = 0
KDR1 150325Z 11018G24KT 26/11 A3008 RMK A01 T02620107  RH  039%=      5-min Rain = 0
KDR1 150330Z 11019G27KT 26/11 A3008 RMK A01 T02630106  RH  039%=      5-min Rain = 0
KDR1 150335Z 11018G25KT 27/11 A3008 RMK A01 T02650105  RH  038%=      5-min Rain = 0
KDR1 150340Z 11019G25KT 27/11 A3008 RMK A01 T02650105  RH  038%=      5-min Rain = 0
KDR1 150345Z 12019G24KT 27/10 A3008 RMK A01 T02660104  RH  037%=      5-min Rain = 0
KDR1 150350Z 12018G24KT 27/11 A3008 RMK A01 T02650105  RH  038%=      5-min Rain = 0
KDR1 150355Z 12019G25KT 26/11 A3008 RMK A01 T02640105  RH  038%=      5-min Rain = 0
KDR1 150400Z 12019G24KT 26/11 A3008 RMK A01 T02640105  RH  038%=      5-min Rain = 0
KDR1 150405Z 13020KT 27/10 A3008 RMK A01 T02650104  RH  038%=      5-min Rain = 0
KDR1 150410Z 12020G26KT 27/10 A3008 RMK A01 T02670101  RH  037%=      5-min Rain = 0
KDR1 150415Z 12019G26KT 27/10 A3008 RMK A01 T02680100  RH  036%=      5-min Rain = 0
KDR1 150420Z 12022G27KT 27/10 A3008 RMK A01 T02690097  RH  035%=      5-min Rain = 0
KDR1 150425Z 12022G30KT 27/10 A3008 RMK A01 T02700095  RH  034%=      5-min Rain = 0
KDR1 150430Z 12021G27KT 27/09 A3008 RMK A01 T02710094  RH  034%=      5-min Rain = 0
KDR1 150435Z 12020G27KT 27/09 A3008 RMK A01 T02710092  RH  033%=      5-min Rain = 0
KDR1 150440Z 12016G22KT 27/09 A3009 RMK A01 T02710092  RH  033%=      5-min Rain = 0
KDR1 150445Z 12019G25KT 27/09 A3009 RMK A01 T02720091  RH  033%=      5-min Rain = 0
KDR1 150450Z 12017G23KT 27/09 A3009 RMK A01 T02720092  RH  033%=      5-min Rain = 0
KDR1 150455Z 12016G21KT 27/09 A3009 RMK A01 T02710093  RH  034%=      5-min Rain = 0

Page generated in 0.0091 seconds.